createdAt,value
2019-03-17T00:00:43.794Z,1.40
2019-03-17T00:01:43.773Z,1.30
2019-03-17T00:02:43.787Z,1.30
2019-03-17T00:03:43.763Z,1.30
2019-03-17T00:04:43.753Z,1.20
2019-03-17T00:05:43.733Z,1.30
2019-03-17T00:06:43.726Z,1.50
2019-03-17T00:07:43.709Z,1.30
2019-03-17T00:08:43.711Z,1.40
2019-03-17T00:09:43.703Z,1.10
2019-03-17T00:10:43.675Z,1.30
2019-03-17T00:11:43.676Z,1.50
2019-03-17T00:12:43.659Z,1.50
2019-03-17T00:13:43.638Z,1.30
2019-03-17T00:14:43.641Z,1.40
2019-03-17T00:15:43.634Z,1.50
2019-03-17T00:16:43.604Z,1.30
2019-03-17T00:17:43.607Z,1.20
2019-03-17T00:18:43.624Z,1.50
2019-03-17T00:19:43.603Z,1.40
2019-03-17T00:20:43.570Z,1.30
2019-03-17T00:21:43.551Z,1.40
2019-03-17T00:22:43.545Z,1.30
2019-03-17T00:23:43.535Z,1.40
2019-03-17T00:24:43.590Z,1.60
2019-03-17T00:25:43.632Z,1.50
2019-03-17T00:26:43.530Z,1.50
2019-03-17T00:27:43.494Z,1.40
2019-03-17T00:28:44.496Z,1.30
2019-03-17T00:29:43.480Z,1.30
2019-03-17T00:30:43.458Z,1.30
2019-03-17T00:31:43.463Z,1.40
2019-03-17T00:32:43.442Z,1.30
2019-03-17T00:33:43.425Z,1.40
2019-03-17T00:34:44.576Z,1.30
2019-03-17T00:35:43.409Z,1.30
2019-03-17T00:36:43.390Z,1.20
2019-03-17T00:37:43.397Z,1.30
2019-03-17T00:38:43.383Z,1.60
2019-03-17T00:39:43.358Z,1.30
2019-03-17T00:40:43.343Z,1.40
2019-03-17T00:41:43.357Z,1.50
2019-03-17T00:42:43.345Z,1.20
2019-03-17T00:43:43.318Z,1.60
2019-03-17T00:44:43.311Z,1.40
2019-03-17T00:45:43.291Z,1.70
2019-03-17T00:46:43.287Z,1.40
2019-03-17T00:47:43.270Z,1.30
2019-03-17T00:48:43.309Z,1.30
2019-03-17T00:49:43.328Z,1.40
2019-03-17T00:50:43.241Z,1.60
2019-03-17T00:51:43.233Z,1.40
2019-03-17T00:52:43.237Z,1.30
2019-03-17T00:53:43.203Z,1.50
2019-03-17T00:54:43.199Z,1.40
2019-03-17T00:55:43.188Z,1.30
2019-03-17T00:56:43.188Z,1.40
2019-03-17T00:57:43.176Z,1.50
2019-03-17T00:58:43.220Z,1.50
2019-03-17T00:59:43.139Z,1.50
2019-03-17T01:00:43.127Z,1.60
2019-03-17T01:01:43.131Z,1.70
2019-03-17T01:02:43.113Z,1.50
2019-03-17T01:03:43.117Z,1.60
2019-03-17T01:04:51.788Z,1.40
2019-03-17T01:05:44.083Z,1.80
2019-03-17T01:06:43.066Z,1.70
2019-03-17T01:07:43.059Z,1.50
2019-03-17T01:08:43.044Z,1.50
2019-03-17T01:09:43.052Z,1.40
2019-03-17T01:10:43.028Z,1.70
2019-03-17T01:11:43.049Z,1.60
2019-03-17T01:12:44.974Z,1.60
2019-03-17T01:13:43.000Z,1.60
2019-03-17T01:14:43.009Z,1.40
2019-03-17T01:15:42.977Z,1.40
2019-03-17T01:16:42.969Z,1.60
2019-03-17T01:17:42.958Z,1.40
2019-03-17T01:18:42.936Z,1.60
2019-03-17T01:19:42.947Z,1.60
2019-03-17T01:20:42.910Z,1.40
2019-03-17T01:21:42.911Z,1.60
2019-03-17T01:22:42.895Z,1.60
2019-03-17T01:23:42.885Z,1.70
2019-03-17T01:24:42.909Z,1.70
2019-03-17T01:25:42.867Z,1.60
2019-03-17T01:26:42.849Z,1.60
2019-03-17T01:27:42.921Z,1.50
2019-03-17T01:28:42.832Z,1.60
2019-03-17T01:29:42.824Z,1.40
2019-03-17T01:30:42.829Z,1.50
2019-03-17T01:31:42.800Z,1.50
2019-03-17T01:32:42.784Z,1.70
2019-03-17T01:33:42.781Z,1.60
2019-03-17T01:34:42.802Z,1.70
2019-03-17T01:35:42.758Z,1.40
2019-03-17T01:36:42.743Z,1.50
2019-03-17T01:37:42.747Z,1.60
2019-03-17T01:38:42.730Z,1.80
2019-03-17T01:39:42.722Z,1.70
2019-03-17T01:40:42.698Z,1.50
2019-03-17T01:41:42.690Z,1.50
2019-03-17T01:42:42.685Z,1.60
2019-03-17T01:43:42.675Z,1.60
2019-03-17T01:44:42.668Z,1.60
2019-03-17T01:45:42.647Z,1.50
2019-03-17T01:46:42.642Z,1.40
2019-03-17T01:47:42.637Z,1.80
2019-03-17T01:48:42.615Z,1.50
2019-03-17T01:49:42.618Z,1.50
2019-03-17T01:50:42.601Z,1.70
2019-03-17T01:51:42.577Z,1.70
2019-03-17T01:52:42.568Z,1.40
2019-03-17T01:53:42.561Z,1.40
2019-03-17T01:54:42.567Z,1.60
2019-03-17T01:55:42.555Z,1.60
2019-03-17T01:56:42.531Z,1.40
2019-03-17T01:57:42.517Z,1.60
2019-03-17T01:58:42.502Z,1.50
2019-03-17T01:59:42.508Z,1.70
2019-03-17T02:00:42.494Z,1.50
2019-03-17T02:01:42.475Z,1.70
2019-03-17T02:02:42.461Z,1.40
2019-03-17T02:03:42.446Z,1.50
2019-03-17T02:04:42.450Z,1.90
2019-03-17T02:05:42.430Z,1.40
2019-03-17T02:06:42.433Z,1.60
2019-03-17T02:07:42.417Z,1.40
2019-03-17T02:08:42.416Z,1.40
2019-03-17T02:09:42.386Z,1.70
2019-03-17T02:10:42.386Z,1.70
2019-03-17T02:11:42.361Z,1.70
2019-03-17T02:12:42.352Z,1.70
2019-03-17T02:13:42.354Z,1.60
2019-03-17T02:14:42.339Z,1.80
2019-03-17T02:15:42.330Z,1.50
2019-03-17T02:16:42.310Z,1.60
2019-03-17T02:17:42.302Z,2.00
2019-03-17T02:18:42.309Z,1.80
2019-03-17T02:19:42.289Z,1.60
2019-03-17T02:20:42.303Z,2.00
2019-03-17T02:21:42.254Z,1.60
2019-03-17T02:22:42.253Z,1.60
2019-03-17T02:23:42.257Z,1.90
2019-03-17T02:24:42.226Z,1.40
2019-03-17T02:25:42.220Z,1.70
2019-03-17T02:26:42.205Z,1.70
2019-03-17T02:27:42.207Z,1.70
2019-03-17T02:28:42.181Z,1.60
2019-03-17T02:29:42.167Z,1.60
2019-03-17T02:30:42.155Z,1.70
2019-03-17T02:31:42.159Z,1.70
2019-03-17T02:32:42.156Z,1.80
2019-03-17T02:33:42.143Z,1.80
2019-03-17T02:34:42.116Z,1.80
2019-03-17T02:35:42.128Z,1.80
2019-03-17T02:36:42.104Z,1.50
2019-03-17T02:37:42.094Z,1.70
2019-03-17T02:38:42.093Z,1.80
2019-03-17T02:39:42.066Z,1.80
2019-03-17T02:40:42.055Z,1.80
2019-03-17T02:41:42.044Z,1.70
2019-03-17T02:42:42.032Z,1.60
2019-03-17T02:43:42.018Z,1.60
2019-03-17T02:44:42.038Z,1.70
2019-03-17T02:45:41.995Z,1.70
2019-03-17T02:46:41.995Z,1.80
2019-03-17T02:47:41.976Z,1.70
2019-03-17T02:48:41.968Z,1.50
2019-03-17T02:49:41.955Z,1.90
2019-03-17T02:50:41.955Z,1.70
2019-03-17T02:51:41.952Z,1.80
2019-03-17T02:52:41.932Z,1.70
2019-03-17T02:53:41.910Z,1.80
2019-03-17T02:54:41.903Z,1.80
2019-03-17T02:55:41.899Z,2.00
2019-03-17T02:56:41.992Z,2.20
2019-03-17T02:57:41.868Z,1.70
2019-03-17T02:58:41.862Z,1.80
2019-03-17T02:59:41.853Z,1.90
2019-03-17T03:00:41.851Z,1.90
2019-03-17T03:01:41.817Z,1.80
2019-03-17T03:02:41.875Z,1.60
2019-03-17T03:03:41.802Z,1.80
2019-03-17T03:04:41.802Z,1.60
2019-03-17T03:05:53.856Z,1.60
2019-03-17T03:06:42.763Z,1.80
2019-03-17T03:07:41.753Z,2.20
2019-03-17T03:08:41.745Z,1.80
2019-03-17T03:09:41.833Z,2.00
2019-03-17T03:10:41.743Z,1.50
2019-03-17T03:11:41.731Z,1.80
2019-03-17T03:12:41.714Z,2.10
2019-03-17T03:13:41.689Z,1.60
2019-03-17T03:14:41.694Z,1.90
2019-03-17T03:15:41.670Z,2.00
2019-03-17T03:16:41.667Z,1.50
2019-03-17T03:17:41.645Z,1.90
2019-03-17T03:18:41.639Z,1.50
2019-03-17T03:19:41.646Z,1.90
2019-03-17T03:20:41.630Z,1.60
2019-03-17T03:21:41.603Z,1.90
2019-03-17T03:22:41.620Z,1.90
2019-03-17T03:23:41.583Z,2.00
2019-03-17T03:24:41.571Z,1.90
2019-03-17T03:25:41.554Z,2.00
2019-03-17T03:26:41.549Z,1.80
2019-03-17T03:27:41.538Z,2.50
2019-03-17T03:28:41.536Z,2.00
2019-03-17T03:29:41.520Z,1.80
2019-03-17T03:30:41.525Z,1.90
2019-03-17T03:31:41.503Z,1.70
2019-03-17T03:32:41.491Z,2.20
2019-03-17T03:33:41.493Z,2.00
2019-03-17T03:34:41.462Z,1.80
2019-03-17T03:35:41.470Z,1.80
2019-03-17T03:36:41.445Z,2.00
2019-03-17T03:37:41.437Z,1.80
2019-03-17T03:38:41.413Z,2.10
2019-03-17T03:39:41.411Z,1.90
2019-03-17T03:40:41.399Z,1.90
2019-03-17T03:41:41.395Z,2.00
2019-03-17T03:42:41.402Z,2.00
2019-03-17T03:43:41.370Z,2.00
2019-03-17T03:44:41.350Z,2.10
2019-03-17T03:45:41.344Z,2.20
2019-03-17T03:46:41.340Z,1.90
2019-03-17T03:47:41.314Z,2.00
2019-03-17T03:48:41.305Z,2.00
2019-03-17T03:49:41.293Z,2.30
2019-03-17T03:50:41.299Z,2.00
2019-03-17T03:51:41.287Z,2.10
2019-03-17T03:52:41.275Z,2.00
2019-03-17T03:53:41.255Z,1.90
2019-03-17T03:54:41.244Z,2.30
2019-03-17T03:55:42.422Z,2.30
2019-03-17T03:56:41.221Z,2.00
2019-03-17T03:57:41.227Z,2.20
2019-03-17T03:58:41.199Z,2.10
2019-03-17T03:59:41.188Z,1.90
2019-03-17T04:00:41.172Z,2.40
2019-03-17T04:01:41.173Z,2.20
2019-03-17T04:02:41.164Z,2.00
2019-03-17T04:03:41.164Z,2.30
2019-03-17T04:04:41.133Z,1.90
2019-03-17T04:05:41.137Z,2.00
2019-03-17T04:06:41.108Z,2.40
2019-03-17T04:07:41.101Z,2.40
2019-03-17T04:08:41.087Z,2.30
2019-03-17T04:09:41.085Z,2.30
2019-03-17T04:10:41.061Z,2.10
2019-03-17T04:11:41.050Z,2.40
2019-03-17T04:12:41.050Z,2.10
2019-03-17T04:13:41.033Z,2.60
2019-03-17T04:14:41.028Z,2.70
2019-03-17T04:15:41.015Z,2.20
2019-03-17T04:16:41.006Z,2.30
2019-03-17T04:17:41.041Z,2.50
2019-03-17T04:18:40.981Z,2.50
2019-03-17T04:19:40.975Z,2.40
2019-03-17T04:20:40.956Z,2.40
2019-03-17T04:21:40.949Z,2.30
2019-03-17T04:22:40.949Z,2.60
2019-03-17T04:23:40.931Z,2.00
2019-03-17T04:24:40.915Z,2.30
2019-03-17T04:25:40.913Z,2.80
2019-03-17T04:26:40.898Z,2.30
2019-03-17T04:27:40.907Z,2.50
2019-03-17T04:28:40.892Z,2.20
2019-03-17T04:29:40.854Z,2.50
2019-03-17T04:30:40.838Z,2.50
2019-03-17T04:31:40.837Z,2.50
2019-03-17T04:32:40.826Z,2.70
2019-03-17T04:33:40.829Z,2.80
2019-03-17T04:34:40.820Z,2.70
2019-03-17T04:35:40.798Z,2.30
2019-03-17T04:36:40.910Z,2.60
2019-03-17T04:37:40.772Z,2.60
2019-03-17T04:38:43.721Z,2.40
2019-03-17T04:39:40.763Z,2.50
2019-03-17T04:40:40.736Z,2.10
2019-03-17T04:41:40.734Z,2.00
2019-03-17T04:42:40.717Z,2.30
2019-03-17T04:43:40.697Z,2.10
2019-03-17T04:44:40.701Z,2.30
2019-03-17T04:45:40.685Z,2.30
2019-03-17T04:46:40.673Z,2.60
2019-03-17T04:47:40.665Z,2.20
2019-03-17T04:48:40.670Z,2.10
2019-03-17T04:49:40.646Z,2.60
2019-03-17T04:50:40.621Z,2.50
2019-03-17T04:51:40.613Z,2.30
2019-03-17T04:52:40.616Z,2.30
2019-03-17T04:53:40.594Z,2.40
2019-03-17T04:54:40.591Z,2.00
2019-03-17T04:55:40.576Z,2.40
2019-03-17T04:56:40.560Z,2.10
2019-03-17T04:57:40.572Z,2.40
2019-03-17T04:58:40.543Z,2.30
2019-03-17T04:59:40.532Z,1.90
2019-03-17T05:00:40.521Z,2.20
2019-03-17T05:01:40.507Z,2.60
2019-03-17T05:02:40.509Z,2.10
2019-03-17T05:03:40.482Z,2.10
2019-03-17T05:04:40.492Z,2.30
2019-03-17T05:05:40.466Z,2.20
2019-03-17T05:06:51.944Z,2.30
2019-03-17T05:07:41.466Z,2.40
2019-03-17T05:08:40.438Z,2.80
2019-03-17T05:09:40.419Z,2.20
2019-03-17T05:10:40.499Z,2.10
2019-03-17T05:11:40.404Z,2.40
2019-03-17T05:12:40.394Z,2.30
2019-03-17T05:13:40.377Z,2.30
2019-03-17T05:14:40.396Z,2.30
2019-03-17T05:15:40.368Z,2.20
2019-03-17T05:16:40.342Z,2.40
2019-03-17T05:17:40.344Z,2.10
2019-03-17T05:18:40.330Z,2.30
2019-03-17T05:19:40.318Z,2.40
2019-03-17T05:20:40.305Z,2.20
2019-03-17T05:21:40.310Z,1.90
2019-03-17T05:22:40.283Z,2.00
2019-03-17T05:23:40.270Z,3.10
2019-03-17T05:24:40.256Z,2.60
2019-03-17T05:25:40.268Z,2.20
2019-03-17T05:26:40.259Z,2.40
2019-03-17T05:27:40.232Z,2.30
2019-03-17T05:28:40.215Z,2.50
2019-03-17T05:29:40.211Z,2.70
2019-03-17T05:30:40.197Z,2.20
2019-03-17T05:31:40.197Z,2.50
2019-03-17T05:32:40.173Z,2.60
2019-03-17T05:33:40.161Z,2.70
2019-03-17T05:34:40.146Z,2.20
2019-03-17T05:35:40.137Z,3.20
2019-03-17T05:36:40.156Z,2.90
2019-03-17T05:37:40.150Z,3.20
2019-03-17T05:38:40.112Z,2.60
2019-03-17T05:39:40.110Z,2.50
2019-03-17T05:40:40.087Z,5.10
2019-03-17T05:41:40.076Z,5.50
2019-03-17T05:42:40.843Z,5.70
2019-03-17T05:43:40.057Z,2.90
2019-03-17T05:44:40.043Z,2.60
2019-03-17T05:45:40.036Z,2.10
2019-03-17T05:46:40.017Z,2.30
2019-03-17T05:47:40.024Z,2.80
2019-03-17T05:48:40.005Z,2.50
2019-03-17T05:49:39.993Z,2.30
2019-03-17T05:50:39.990Z,2.40
2019-03-17T05:51:39.969Z,2.00
2019-03-17T05:52:39.978Z,2.30
2019-03-17T05:53:40.433Z,2.70
2019-03-17T05:54:39.941Z,2.40
2019-03-17T05:55:39.923Z,2.30
2019-03-17T05:56:39.913Z,2.30
2019-03-17T05:57:40.011Z,2.30
2019-03-17T05:58:39.895Z,2.60
2019-03-17T05:59:39.880Z,2.60
2019-03-17T06:00:39.868Z,2.40
2019-03-17T06:01:39.870Z,2.10
2019-03-17T06:02:39.862Z,2.30
2019-03-17T06:03:39.840Z,2.30
2019-03-17T06:04:39.847Z,2.40
2019-03-17T06:05:39.821Z,2.10
2019-03-17T06:06:39.805Z,2.10
2019-03-17T06:07:39.794Z,2.20
2019-03-17T06:08:39.786Z,2.00
2019-03-17T06:09:39.776Z,2.10
2019-03-17T06:10:39.777Z,2.10
2019-03-17T06:11:39.756Z,2.00
2019-03-17T06:12:39.745Z,1.90
2019-03-17T06:13:39.761Z,2.20
2019-03-17T06:14:39.719Z,2.10
2019-03-17T06:15:39.708Z,2.00
2019-03-17T06:16:39.700Z,1.90
2019-03-17T06:17:39.681Z,2.40
2019-03-17T06:18:39.691Z,2.20
2019-03-17T06:19:39.665Z,2.40
2019-03-17T06:20:39.653Z,2.30
2019-03-17T06:21:39.646Z,2.10
2019-03-17T06:22:39.633Z,2.20
2019-03-17T06:23:39.621Z,2.40
2019-03-17T06:24:39.623Z,2.20
2019-03-17T06:25:39.602Z,2.00
2019-03-17T06:26:39.600Z,1.80
2019-03-17T06:27:39.599Z,2.20
2019-03-17T06:28:39.579Z,2.20
2019-03-17T06:29:39.577Z,2.00
2019-03-17T06:30:39.546Z,2.50
2019-03-17T06:31:39.535Z,2.30
2019-03-17T06:32:39.522Z,2.40
2019-03-17T06:33:39.517Z,2.30
2019-03-17T06:34:39.528Z,2.10
2019-03-17T06:35:39.498Z,1.80
2019-03-17T06:36:39.496Z,2.00
2019-03-17T06:37:39.463Z,2.20
2019-03-17T06:38:39.458Z,2.20
2019-03-17T06:39:39.443Z,1.80
2019-03-17T06:40:39.446Z,2.50
2019-03-17T06:41:39.426Z,2.10
2019-03-17T06:42:39.413Z,1.80
2019-03-17T06:43:39.403Z,1.90
2019-03-17T06:44:39.412Z,2.00
2019-03-17T06:45:39.383Z,1.90
2019-03-17T06:46:39.367Z,1.60
2019-03-17T06:47:39.361Z,1.90
2019-03-17T06:48:39.350Z,1.60
2019-03-17T06:49:39.343Z,1.40
2019-03-17T06:50:39.335Z,1.50
2019-03-17T06:51:39.317Z,1.00
2019-03-17T06:52:39.298Z,1.40
2019-03-17T06:53:39.296Z,1.20
2019-03-17T06:54:39.292Z,1.40
2019-03-17T06:55:39.284Z,1.20
2019-03-17T06:56:39.268Z,1.10
2019-03-17T06:57:39.259Z,1.30
2019-03-17T06:58:39.239Z,1.40
2019-03-17T06:59:39.250Z,1.20
2019-03-17T07:00:39.588Z,1.40
2019-03-17T07:01:39.324Z,1.30
2019-03-17T07:02:39.196Z,2.70
2019-03-17T07:03:39.183Z,1.90
2019-03-17T07:04:39.170Z,1.50
2019-03-17T07:05:39.166Z,1.00
2019-03-17T07:06:39.168Z,1.10
2019-03-17T07:07:44.515Z,1.10
2019-03-17T07:08:40.131Z,1.10
2019-03-17T07:09:39.111Z,1.20
2019-03-17T07:10:39.111Z,1.20
2019-03-17T07:11:39.120Z,1.00
2019-03-17T07:12:39.161Z,1.00
2019-03-17T07:13:39.079Z,1.20
2019-03-17T07:14:39.066Z,1.20
2019-03-17T07:15:39.051Z,1.20
2019-03-17T07:16:39.064Z,1.10
2019-03-17T07:17:39.031Z,1.30
2019-03-17T07:18:39.019Z,1.10
2019-03-17T07:19:39.019Z,0.90
2019-03-17T07:20:39.005Z,1.00
2019-03-17T07:21:38.995Z,1.00
2019-03-17T07:22:38.998Z,1.00
2019-03-17T07:23:38.962Z,0.90
2019-03-17T07:24:38.962Z,0.90
2019-03-17T07:25:38.953Z,1.00
2019-03-17T07:26:38.930Z,1.00
2019-03-17T07:27:38.932Z,0.90
2019-03-17T07:28:38.915Z,0.80
2019-03-17T07:29:38.893Z,0.80
2019-03-17T07:30:38.920Z,0.90
2019-03-17T07:31:38.874Z,1.00
2019-03-17T07:32:38.870Z,0.80
2019-03-17T07:33:38.861Z,1.00
2019-03-17T07:34:38.842Z,0.80
2019-03-17T07:35:38.857Z,0.90
2019-03-17T07:36:38.826Z,1.00
2019-03-17T07:37:38.832Z,0.80
2019-03-17T07:38:38.809Z,0.80
2019-03-17T07:39:38.794Z,0.80
2019-03-17T07:40:38.784Z,1.30
2019-03-17T07:41:38.771Z,0.80
2019-03-17T07:42:38.772Z,1.20
2019-03-17T07:43:38.740Z,0.90
2019-03-17T07:44:38.727Z,0.70
2019-03-17T07:45:38.736Z,0.90
2019-03-17T07:46:38.713Z,0.70
2019-03-17T07:47:38.710Z,1.00
2019-03-17T07:48:38.720Z,0.70
2019-03-17T07:49:38.673Z,0.70
2019-03-17T07:50:38.681Z,0.80
2019-03-17T07:51:38.657Z,0.90
2019-03-17T07:52:38.666Z,0.80
2019-03-17T07:53:38.634Z,1.00
2019-03-17T07:54:38.625Z,1.80
2019-03-17T07:55:38.618Z,0.80
2019-03-17T07:56:38.595Z,1.00
2019-03-17T07:57:38.600Z,1.10
2019-03-17T07:58:38.594Z,0.60
2019-03-17T07:59:38.601Z,0.80
2019-03-17T08:00:38.566Z,0.70
2019-03-17T08:01:38.553Z,0.70
2019-03-17T08:02:38.531Z,0.80
2019-03-17T08:03:38.525Z,0.60
2019-03-17T08:04:43.117Z,0.60
2019-03-17T08:05:39.509Z,0.70
2019-03-17T08:06:38.497Z,1.00
2019-03-17T08:07:38.484Z,0.60
2019-03-17T08:08:38.613Z,0.60
2019-03-17T08:09:38.461Z,0.80
2019-03-17T08:10:38.466Z,0.80
2019-03-17T08:11:38.438Z,0.40
2019-03-17T08:12:38.430Z,0.40
2019-03-17T08:13:38.408Z,0.50
2019-03-17T08:14:38.417Z,0.60
2019-03-17T08:15:38.392Z,0.50
2019-03-17T08:16:38.386Z,0.50
2019-03-17T08:17:38.395Z,0.50
2019-03-17T08:18:38.372Z,0.50
2019-03-17T08:19:38.355Z,0.60
2019-03-17T08:20:38.345Z,0.50
2019-03-17T08:21:38.343Z,0.30
2019-03-17T08:22:38.315Z,0.40
2019-03-17T08:23:38.325Z,0.50
2019-03-17T08:24:38.300Z,0.40
2019-03-17T08:25:38.278Z,0.40
2019-03-17T08:26:38.269Z,0.40
2019-03-17T08:27:38.260Z,0.40
2019-03-17T08:28:38.264Z,0.30
2019-03-17T08:29:38.243Z,0.40
2019-03-17T08:30:38.239Z,0.30
2019-03-17T08:31:38.219Z,0.30
2019-03-17T08:32:41.118Z,0.30
2019-03-17T08:33:38.194Z,0.30
2019-03-17T08:34:38.210Z,0.20
2019-03-17T08:35:38.172Z,0.30
2019-03-17T08:36:38.159Z,0.30
2019-03-17T08:37:38.154Z,0.20
2019-03-17T08:38:38.143Z,0.20
2019-03-17T08:39:38.150Z,0.30
2019-03-17T08:40:38.112Z,0.20
2019-03-17T08:41:38.111Z,0.30
2019-03-17T08:42:38.098Z,0.30
2019-03-17T08:43:38.086Z,0.40
2019-03-17T08:44:38.130Z,0.10
2019-03-17T08:45:38.067Z,0.30
2019-03-17T08:46:38.053Z,0.20
2019-03-17T08:47:38.040Z,0.20
2019-03-17T08:48:38.027Z,0.30
2019-03-17T08:49:38.025Z,0.10
2019-03-17T08:50:38.024Z,0.30
2019-03-17T08:51:38.141Z,0.30
2019-03-17T08:52:37.991Z,0.40
2019-03-17T08:53:37.973Z,0.30
2019-03-17T08:54:37.966Z,0.50
2019-03-17T08:55:37.959Z,0.50
2019-03-17T08:56:37.962Z,0.40
2019-03-17T08:57:37.944Z,0.30
2019-03-17T08:58:37.921Z,0.30
2019-03-17T08:59:37.918Z,0.30
2019-03-17T09:00:37.896Z,0.40
2019-03-17T09:01:37.913Z,0.30
2019-03-17T09:02:37.883Z,0.30
2019-03-17T09:03:37.871Z,0.20
2019-03-17T09:04:37.863Z,0.30
2019-03-17T09:05:37.841Z,0.40
2019-03-17T09:06:37.841Z,0.30
2019-03-17T09:07:37.844Z,0.40
2019-03-17T09:08:37.819Z,0.50
2019-03-17T09:09:37.806Z,0.30
2019-03-17T09:10:37.791Z,0.40
2019-03-17T09:11:37.801Z,0.40
2019-03-17T09:12:37.785Z,0.30
2019-03-17T09:13:37.811Z,0.30
2019-03-17T09:14:37.755Z,0.30
2019-03-17T09:15:37.754Z,0.40
2019-03-17T09:16:37.733Z,0.30
2019-03-17T09:17:37.709Z,0.40
2019-03-17T09:18:37.715Z,0.40
2019-03-17T09:19:37.691Z,0.30
2019-03-17T09:20:37.690Z,0.40
2019-03-17T09:21:37.675Z,0.30
2019-03-17T09:22:37.662Z,0.30
2019-03-17T09:23:37.661Z,0.40
2019-03-17T09:24:37.645Z,0.40
2019-03-17T09:25:37.623Z,0.40
2019-03-17T09:26:37.616Z,0.30
2019-03-17T09:27:37.623Z,0.40
2019-03-17T09:28:37.598Z,0.60
2019-03-17T09:29:37.579Z,0.30
2019-03-17T09:30:37.597Z,0.40
2019-03-17T09:31:37.563Z,0.50
2019-03-17T09:32:37.545Z,0.40
2019-03-17T09:33:37.554Z,0.50
2019-03-17T09:34:37.540Z,0.30
2019-03-17T09:35:37.524Z,0.40
2019-03-17T09:36:37.520Z,0.50
2019-03-17T09:37:37.512Z,0.50
2019-03-17T09:38:46.741Z,0.50
2019-03-17T09:39:38.478Z,0.30
2019-03-17T09:40:37.458Z,0.50
2019-03-17T09:41:37.455Z,0.40
2019-03-17T09:42:37.451Z,0.40
2019-03-17T09:43:37.443Z,0.30
2019-03-17T09:44:37.429Z,0.30
2019-03-17T09:45:37.418Z,0.60
2019-03-17T09:46:37.402Z,0.40
2019-03-17T09:47:37.398Z,0.40
2019-03-17T09:48:37.397Z,0.30
2019-03-17T09:49:37.381Z,0.40
2019-03-17T09:50:37.355Z,0.40
2019-03-17T09:51:37.345Z,0.30
2019-03-17T09:52:37.328Z,0.50
2019-03-17T09:53:37.354Z,0.50
2019-03-17T09:54:37.327Z,0.40
2019-03-17T09:55:37.301Z,0.40
2019-03-17T09:56:37.305Z,0.50
2019-03-17T09:57:37.272Z,0.40
2019-03-17T09:58:37.272Z,0.40
2019-03-17T09:59:37.282Z,0.50
2019-03-17T10:00:37.249Z,0.30
2019-03-17T10:01:37.228Z,0.40
2019-03-17T10:02:37.244Z,0.40
2019-03-17T10:03:37.217Z,0.30
2019-03-17T10:04:37.202Z,0.40
2019-03-17T10:05:37.197Z,0.40
2019-03-17T10:06:37.199Z,0.60
2019-03-17T10:07:37.171Z,0.40
2019-03-17T10:08:37.170Z,0.60
2019-03-17T10:09:37.146Z,0.50
2019-03-17T10:10:37.140Z,0.40
2019-03-17T10:11:37.121Z,0.70
2019-03-17T10:12:37.127Z,0.50
2019-03-17T10:13:37.111Z,0.50
2019-03-17T10:14:37.105Z,0.50
2019-03-17T10:15:37.079Z,0.50
2019-03-17T10:16:37.102Z,0.50
2019-03-17T10:17:37.116Z,0.40
2019-03-17T10:18:37.052Z,0.70
2019-03-17T10:19:37.045Z,0.50
2019-03-17T10:20:37.027Z,0.60
2019-03-17T10:21:37.017Z,0.60
2019-03-17T10:22:39.735Z,0.50
2019-03-17T10:23:37.008Z,0.60
2019-03-17T10:24:36.982Z,0.40
2019-03-17T10:25:36.973Z,0.40
2019-03-17T10:26:36.967Z,0.40
2019-03-17T10:27:36.975Z,0.50
2019-03-17T10:28:36.943Z,0.50
2019-03-17T10:29:36.954Z,0.50
2019-03-17T10:30:36.926Z,0.90
2019-03-17T10:31:36.910Z,0.60
2019-03-17T10:32:36.910Z,0.50
2019-03-17T10:33:36.882Z,0.50
2019-03-17T10:34:36.868Z,0.60
2019-03-17T10:35:36.859Z,0.60
2019-03-17T10:36:36.851Z,0.60
2019-03-17T10:37:36.853Z,0.70
2019-03-17T10:38:36.837Z,0.80
2019-03-17T10:39:36.846Z,0.50
2019-03-17T10:40:36.818Z,0.70
2019-03-17T10:41:36.795Z,0.90
2019-03-17T10:42:36.795Z,0.60
2019-03-17T10:43:36.781Z,0.40
2019-03-17T10:44:36.773Z,0.70
2019-03-17T10:45:36.758Z,0.40
2019-03-17T10:46:36.754Z,0.60
2019-03-17T10:47:36.738Z,0.50
2019-03-17T10:48:36.814Z,0.60
2019-03-17T10:49:36.713Z,0.50
2019-03-17T10:50:48.728Z,0.70
2019-03-17T10:51:37.692Z,0.70
2019-03-17T10:52:36.690Z,0.60
2019-03-17T10:53:36.678Z,0.70
2019-03-17T10:54:36.665Z,0.70
2019-03-17T10:55:36.646Z,0.70
2019-03-17T10:56:36.636Z,0.70
2019-03-17T10:57:36.630Z,0.70
2019-03-17T10:58:36.615Z,0.80
2019-03-17T10:59:36.616Z,0.70
2019-03-17T11:00:36.589Z,0.70
2019-03-17T11:01:36.581Z,0.60
2019-03-17T11:02:36.578Z,0.50
2019-03-17T11:03:36.562Z,0.60
2019-03-17T11:04:36.560Z,0.90
2019-03-17T11:05:36.533Z,0.60
2019-03-17T11:06:36.518Z,0.50
2019-03-17T11:07:36.508Z,0.50
2019-03-17T11:08:36.517Z,0.60
2019-03-17T11:09:36.495Z,0.60
2019-03-17T11:10:36.488Z,0.50
2019-03-17T11:11:36.471Z,0.60
2019-03-17T11:12:36.460Z,0.50
2019-03-17T11:13:36.447Z,0.60
2019-03-17T11:14:36.448Z,0.70
2019-03-17T11:15:36.491Z,0.60
2019-03-17T11:16:36.412Z,0.50
2019-03-17T11:17:36.422Z,0.50
2019-03-17T11:18:36.404Z,0.60
2019-03-17T11:19:36.388Z,0.90
2019-03-17T11:20:36.375Z,0.70
2019-03-17T11:21:36.359Z,0.60
2019-03-17T11:22:36.359Z,0.90
2019-03-17T11:23:36.340Z,0.70
2019-03-17T11:24:36.338Z,0.90
2019-03-17T11:25:36.339Z,0.70
2019-03-17T11:26:36.319Z,0.80
2019-03-17T11:27:36.288Z,0.80
2019-03-17T11:28:36.282Z,0.70
2019-03-17T11:29:36.273Z,0.60
2019-03-17T11:30:36.277Z,0.60
2019-03-17T11:31:36.262Z,0.60
2019-03-17T11:32:36.246Z,0.60
2019-03-17T11:33:36.237Z,0.50
2019-03-17T11:34:36.213Z,0.70
2019-03-17T11:35:36.210Z,0.50
2019-03-17T11:36:36.210Z,0.60
2019-03-17T11:37:36.182Z,0.60
2019-03-17T11:38:36.188Z,0.50
2019-03-17T11:39:37.946Z,0.60
2019-03-17T11:40:36.165Z,0.60
2019-03-17T11:41:36.147Z,0.60
2019-03-17T11:42:36.137Z,0.60
2019-03-17T11:43:36.122Z,0.80
2019-03-17T11:44:36.110Z,0.80
2019-03-17T11:45:36.093Z,0.60
2019-03-17T11:46:36.092Z,0.70
2019-03-17T11:47:36.073Z,0.70
2019-03-17T11:48:36.088Z,0.50
2019-03-17T11:49:36.056Z,0.70
2019-03-17T11:50:36.044Z,0.50
2019-03-17T11:51:36.037Z,0.60
2019-03-17T11:52:36.019Z,0.60
2019-03-17T11:53:36.014Z,0.70
2019-03-17T11:54:36.009Z,0.60
2019-03-17T11:55:36.325Z,0.60
2019-03-17T11:56:36.087Z,0.60
2019-03-17T11:57:35.969Z,0.80
2019-03-17T11:58:36.042Z,0.70
2019-03-17T11:59:35.975Z,0.70
2019-03-17T12:00:35.933Z,0.60
2019-03-17T12:01:35.959Z,0.50
2019-03-17T12:02:35.989Z,0.70
2019-03-17T12:03:35.907Z,0.70
2019-03-17T12:04:35.912Z,0.60
2019-03-17T12:05:35.915Z,0.90
2019-03-17T12:06:35.874Z,0.70
2019-03-17T12:07:35.869Z,0.50
2019-03-17T12:08:35.936Z,0.50
2019-03-17T12:09:35.836Z,0.60
2019-03-17T12:10:35.875Z,0.70
2019-03-17T12:11:35.829Z,0.50
2019-03-17T12:12:35.823Z,0.70
2019-03-17T12:13:35.794Z,0.50
2019-03-17T12:14:35.815Z,0.50
2019-03-17T12:15:35.776Z,0.50
2019-03-17T12:16:35.796Z,0.70
2019-03-17T12:17:35.760Z,0.60
2019-03-17T12:18:35.771Z,0.70
2019-03-17T12:19:35.730Z,0.60
2019-03-17T12:20:35.717Z,0.90
2019-03-17T12:21:35.753Z,0.50
2019-03-17T12:22:35.707Z,0.70
2019-03-17T12:23:35.689Z,0.70
2019-03-17T12:24:35.686Z,0.60
2019-03-17T12:25:35.663Z,0.60
2019-03-17T12:26:35.702Z,0.90
2019-03-17T12:27:35.671Z,0.70
2019-03-17T12:28:35.648Z,0.70
2019-03-17T12:29:35.610Z,0.70
2019-03-17T12:30:35.604Z,0.70
2019-03-17T12:31:35.633Z,0.80
2019-03-17T12:32:35.586Z,1.00
2019-03-17T12:33:35.613Z,0.80
2019-03-17T12:34:35.582Z,0.80
2019-03-17T12:35:35.564Z,0.70
2019-03-17T12:36:35.566Z,0.60
2019-03-17T12:37:35.561Z,0.70
2019-03-17T12:38:35.510Z,0.80
2019-03-17T12:39:35.538Z,0.70
2019-03-17T12:40:35.524Z,0.80
2019-03-17T12:41:38.199Z,0.70
2019-03-17T12:42:35.470Z,0.90
2019-03-17T12:43:35.481Z,0.60
2019-03-17T12:44:35.562Z,0.50
2019-03-17T12:45:35.467Z,0.40
2019-03-17T12:46:35.441Z,0.50
2019-03-17T12:47:37.442Z,0.50
2019-03-17T12:48:35.405Z,0.70
2019-03-17T12:49:35.408Z,0.60
2019-03-17T12:50:35.430Z,0.70
2019-03-17T12:51:35.380Z,0.50
2019-03-17T12:52:35.376Z,0.70
2019-03-17T12:53:35.378Z,0.70
2019-03-17T12:54:35.471Z,0.60
2019-03-17T12:55:35.357Z,0.50
2019-03-17T12:56:35.316Z,0.50
2019-03-17T12:57:35.331Z,0.40
2019-03-17T12:58:35.307Z,0.80
2019-03-17T12:59:35.301Z,0.60
2019-03-17T13:00:35.301Z,0.60
2019-03-17T13:01:35.277Z,0.60
2019-03-17T13:02:35.297Z,0.60
2019-03-17T13:03:35.245Z,0.60
2019-03-17T13:04:35.244Z,0.70
2019-03-17T13:05:35.267Z,0.60
2019-03-17T13:06:35.251Z,1.10
2019-03-17T13:07:35.215Z,0.80
2019-03-17T13:08:35.190Z,0.80
2019-03-17T13:09:35.194Z,0.70
2019-03-17T13:10:35.194Z,0.70
2019-03-17T13:11:35.159Z,0.60
2019-03-17T13:12:35.141Z,0.80
2019-03-17T13:13:35.128Z,0.70
2019-03-17T13:14:35.115Z,1.20
2019-03-17T13:15:35.137Z,0.90
2019-03-17T13:16:35.191Z,0.70
2019-03-17T13:17:35.139Z,0.70
2019-03-17T13:18:35.081Z,0.90